Time;durP1;ratioP1;P1;durP2;ratioP2;P2;SDS_P1;SDS_P2;PMS_P1;PMS_P2;Temp;Humidity;BMP_temperature;BMP_pressure;BME280_temperature;BME280_humidity;BME280_pressure;Samples;Min_cycle;Max_cycle;Signal;HPM_P1;HPM_P2
2020/12/03 00:02:17;;;;;;;26.75;16.40;;;4.70;99.90;;;;;;5076150;28;20585;-76
2020/12/03 00:04:49;;;;;;;26.10;15.35;;;4.70;99.90;;;;;;5076461;28;20713;-77
2020/12/03 00:07:15;;;;;;;27.33;17.08;;;4.80;99.90;;;;;;5058568;28;20191;-77
2020/12/03 00:09:45;;;;;;;26.55;17.33;;;4.70;99.90;;;;;;5076207;28;20679;-77
2020/12/03 00:12:15;;;;;;;24.55;15.52;;;4.70;99.90;;;;;;5075590;28;20262;-77
2020/12/03 00:14:43;;;;;;;26.90;16.63;;;4.70;99.90;;;;;;5075976;28;20207;-77
2020/12/03 00:17:12;;;;;;;30.25;16.88;;;4.70;99.90;;;;;;5058766;28;20706;-76
2020/12/03 00:19:40;;;;;;;25.75;17.10;;;4.70;99.90;;;;;;5093551;28;20231;-77
2020/12/03 00:22:15;;;;;;;28.35;16.55;;;4.70;99.90;;;;;;5075653;28;20260;-77
2020/12/03 00:24:41;;;;;;;28.65;16.10;;;4.60;99.90;;;;;;5094133;28;20563;-77
2020/12/03 00:27:13;;;;;;;28.80;16.67;;;4.60;99.90;;;;;;5042420;28;20191;-76
2020/12/03 00:29:43;;;;;;;26.77;15.88;;;4.70;99.90;;;;;;5076241;28;20183;-77
2020/12/03 00:32:24;;;;;;;28.58;16.95;;;4.60;99.90;;;;;;5056481;28;20194;-77
2020/12/03 00:34:53;;;;;;;25.13;15.57;;;4.70;99.90;;;;;;5039893;28;20212;-77
2020/12/03 00:37:21;;;;;;;27.95;16.05;;;4.60;99.90;;;;;;5057612;28;20179;-77
2020/12/03 00:39:53;;;;;;;24.13;16.35;;;4.60;99.90;;;;;;5075633;28;20574;-77
2020/12/03 00:42:22;;;;;;;23.58;15.60;;;4.60;99.90;;;;;;5054135;22;20242;-77
2020/12/03 00:45:01;;;;;;;26.88;15.50;;;4.70;99.90;;;;;;5035498;28;20271;-75
2020/12/03 00:47:42;;;;;;;28.42;17.15;;;4.70;99.90;;;;;;5001148;28;20185;-77
2020/12/03 00:50:15;;;;;;;24.15;15.85;;;4.60;99.90;;;;;;5015668;28;20643;-76
2020/12/03 00:52:42;;;;;;;27.98;16.25;;;4.60;99.90;;;;;;5032699;28;20227;-75
2020/12/03 00:55:11;;;;;;;26.23;16.10;;;4.60;99.90;;;;;;5000365;28;20209;-75
2020/12/03 00:57:47;;;;;;;28.65;16.42;;;4.70;99.90;;;;;;5038708;28;20519;-76
2020/12/03 01:00:19;;;;;;;25.35;16.17;;;4.70;99.90;;;;;;5019408;28;20188;-77
2020/12/03 01:02:51;;;;;;;28.70;16.92;;;4.70;99.90;;;;;;5033596;28;20173;-76
2020/12/03 01:05:20;;;;;;;26.30;15.75;;;4.60;99.90;;;;;;5032405;28;20205;-76
2020/12/03 01:07:48;;;;;;;24.13;14.82;;;4.60;99.90;;;;;;5032329;28;20744;-75
2020/12/03 01:10:24;;;;;;;27.17;16.90;;;4.60;99.90;;;;;;5015833;28;20177;-76
2020/12/03 01:12:54;;;;;;;29.23;16.75;;;4.60;99.90;;;;;;5014449;28;20685;-76
2020/12/03 01:15:26;;;;;;;26.50;16.67;;;4.60;99.90;;;;;;5015498;28;20240;-77
2020/12/03 01:18:04;;;;;;;26.95;17.13;;;4.50;99.90;;;;;;5028185;28;20196;-76
2020/12/03 01:20:30;;;;;;;30.05;18.05;;;4.50;99.90;;;;;;5035399;28;20613;-76
2020/12/03 01:23:15;;;;;;;30.52;17.95;;;4.60;99.90;;;;;;5032605;28;20540;-75
2020/12/03 01:25:44;;;;;;;27.17;16.48;;;4.50;99.90;;;;;;5044086;28;20758;-76
2020/12/03 01:28:13;;;;;;;31.05;17.48;;;4.60;99.90;;;;;;5018321;28;20192;-76
2020/12/03 01:30:42;;;;;;;26.75;17.15;;;4.70;99.90;;;;;;5051291;28;20172;-76
2020/12/03 01:33:13;;;;;;;29.85;17.85;;;4.60;99.90;;;;;;5012005;28;20247;-76
2020/12/03 01:35:48;;;;;;;25.77;16.05;;;4.70;99.90;;;;;;4998965;28;20213;-76
2020/12/03 01:38:24;;;;;;;28.52;16.92;;;4.70;99.90;;;;;;5017067;28;20177;-76
2020/12/03 01:41:03;;;;;;;25.75;15.98;;;4.70;99.90;;;;;;5015577;28;20185;-76
2020/12/03 01:43:39;;;;;;;28.45;17.80;;;4.80;99.90;;;;;;5031533;28;20248;-77
2020/12/03 01:46:13;;;;;;;29.75;16.95;;;4.90;99.90;;;;;;5004158;28;20736;-77
2020/12/03 01:48:58;;;;;;;26.00;15.43;;;4.80;99.90;;;;;;5018410;28;20219;-76
2020/12/03 01:51:48;;;;;;;30.00;17.58;;;4.80;99.90;;;;;;5052587;28;20579;-77
2020/12/03 01:54:19;;;;;;;29.70;15.90;;;4.80;99.90;;;;;;5035064;28;20216;-76
2020/12/03 01:57:10;;;;;;;22.15;15.90;;;4.80;99.90;;;;;;5050970;28;20196;-77
2020/12/03 01:59:41;;;;;;;24.80;17.15;;;4.80;99.90;;;;;;5039859;28;20170;-76
2020/12/03 02:02:14;;;;;;;28.27;17.85;;;4.80;99.90;;;;;;5015390;28;20197;-76
2020/12/03 02:05:30;;;;;;;28.27;17.90;;;4.70;99.90;;;;;;5015198;28;20209;-76
2020/12/03 02:08:08;;;;;;;28.55;16.88;;;4.70;99.90;;;;;;4955393;28;20696;-76
2020/12/03 02:10:40;;;;;;;26.45;15.75;;;4.70;99.90;;;;;;4959857;28;20242;-75
2020/12/03 02:13:06;;;;;;;26.30;16.05;;;4.70;99.90;;;;;;4971932;28;20676;-75
2020/12/03 02:15:36;;;;;;;25.98;16.52;;;4.70;99.90;;;;;;4971169;28;20257;-76
2020/12/03 02:18:07;;;;;;;25.90;16.48;;;4.70;99.90;;;;;;4971633;28;20179;-76
2020/12/03 02:20:38;;;;;;;25.48;16.27;;;4.70;99.90;;;;;;4964569;28;20184;-75
2020/12/03 02:23:13;;;;;;;27.50;17.40;;;4.80;99.90;;;;;;4952193;29;20271;-77
2020/12/03 02:25:48;;;;;;;29.75;17.63;;;4.70;99.90;;;;;;4956203;28;20878;-75
2020/12/03 02:28:14;;;;;;;29.37;16.93;;;4.60;99.90;;;;;;4971363;28;20286;-76
2020/12/03 02:30:40;;;;;;;27.02;15.40;;;4.90;99.90;;;;;;4970925;28;20481;-76
2020/12/03 02:33:14;;;;;;;25.70;16.27;;;4.70;99.90;;;;;;4955396;28;20712;-76
2020/12/03 02:35:50;;;;;;;28.55;17.50;;;4.70;99.90;;;;;;4971524;28;20525;-76
2020/12/03 02:38:22;;;;;;;26.98;17.02;;;4.80;99.90;;;;;;5004264;28;20272;-77
2020/12/03 02:40:51;;;;;;;26.42;16.00;;;4.80;99.90;;;;;;5034269;28;20200;-77
2020/12/03 02:43:20;;;;;;;26.60;17.50;;;4.80;99.90;;;;;;5030926;28;20267;-76
2020/12/03 02:45:48;;;;;;;25.33;15.30;;;5.00;99.90;;;;;;5018530;28;20205;-75
2020/12/03 02:48:15;;;;;;;26.38;17.00;;;4.80;99.90;;;;;;5033885;28;20181;-75
2020/12/03 02:50:46;;;;;;;26.95;16.65;;;4.70;99.90;;;;;;5021699;28;20568;-76
2020/12/03 02:53:13;;;;;;;24.50;15.90;;;4.80;99.90;;;;;;5023352;28;20181;-76
2020/12/03 02:55:41;;;;;;;24.25;15.45;;;4.70;99.90;;;;;;4992642;28;20617;-76
2020/12/03 02:58:12;;;;;;;27.52;16.70;;;4.80;99.90;;;;;;5022820;28;20693;-77
2020/12/03 03:00:39;;;;;;;27.73;16.02;;;4.90;99.90;;;;;;5037562;28;20184;-77
2020/12/03 03:03:08;;;;;;;25.27;15.55;;;4.90;99.90;;;;;;5054079;28;20191;-77
2020/12/03 03:05:34;;;;;;;28.05;16.80;;;4.90;99.90;;;;;;5037588;28;20208;-75
2020/12/03 03:08:00;;;;;;;28.42;16.63;;;4.90;99.90;;;;;;5038253;28;20191;-76
2020/12/03 03:10:28;;;;;;;27.17;16.70;;;4.90;99.90;;;;;;5031480;28;20189;-75
2020/12/03 03:12:57;;;;;;;26.33;15.70;;;4.80;99.90;;;;;;5002162;28;20201;-76
2020/12/03 03:15:23;;;;;;;24.45;15.52;;;5.00;99.90;;;;;;5022648;28;20208;-76
2020/12/03 03:17:52;;;;;;;26.23;16.10;;;4.80;99.90;;;;;;5055351;28;20191;-76
2020/12/03 03:20:21;;;;;;;22.80;15.27;;;4.80;99.90;;;;;;5055129;28;20272;-75
2020/12/03 03:22:48;;;;;;;27.30;16.08;;;4.80;99.90;;;;;;5055348;28;20234;-77
2020/12/03 03:25:18;;;;;;;24.13;15.70;;;4.80;99.90;;;;;;5036625;28;20208;-76
2020/12/03 03:27:47;;;;;;;24.65;15.48;;;4.80;99.90;;;;;;5037161;28;20600;-76
2020/12/03 03:30:16;;;;;;;28.05;17.10;;;4.80;99.90;;;;;;5037262;28;20601;-76
2020/12/03 03:32:42;;;;;;;23.80;14.88;;;4.80;99.90;;;;;;5029792;28;20280;-75
2020/12/03 03:35:12;;;;;;;28.02;16.42;;;5.10;99.90;;;;;;5017345;28;20217;-76
2020/12/03 03:37:38;;;;;;;30.00;15.48;;;4.90;99.90;;;;;;5017305;28;20204;-76
2020/12/03 03:40:07;;;;;;;25.70;15.73;;;4.90;99.90;;;;;;5017279;28;20623;-76
2020/12/03 03:42:35;;;;;;;23.73;16.30;;;4.90;99.90;;;;;;5033560;28;20213;-77
2020/12/03 03:45:09;;;;;;;24.95;15.50;;;4.80;99.90;;;;;;5017186;28;20702;-76
2020/12/03 03:47:37;;;;;;;21.42;14.43;;;4.80;99.90;;;;;;5036903;28;20227;-77
2020/12/03 03:50:04;;;;;;;29.35;17.55;;;4.80;99.90;;;;;;5020869;28;20184;-77
2020/12/03 03:52:40;;;;;;;26.75;15.68;;;4.80;99.90;;;;;;5054310;28;20184;-76
2020/12/03 03:55:06;;;;;;;23.08;14.63;;;4.70;99.90;;;;;;5015667;28;20244;-75
2020/12/03 03:57:33;;;;;;;26.10;16.63;;;4.80;99.90;;;;;;5043163;28;20664;-77
2020/12/03 03:59:59;;;;;;;24.58;16.05;;;4.70;99.90;;;;;;5017854;28;20543;-75
2020/12/03 04:02:30;;;;;;;28.17;17.30;;;4.70;99.90;;;;;;5033232;28;20184;-75
2020/12/03 04:05:03;;;;;;;25.60;15.75;;;4.70;99.90;;;;;;5034173;28;20200;-76
2020/12/03 04:07:30;;;;;;;27.63;16.42;;;4.70;99.90;;;;;;5033151;28;20687;-76
2020/12/03 04:10:05;;;;;;;28.70;16.77;;;4.70;99.90;;;;;;5004172;28;20176;-76
2020/12/03 04:12:32;;;;;;;23.83;15.90;;;4.80;99.90;;;;;;5036397;28;20192;-76
2020/12/03 04:15:00;;;;;;;26.00;15.95;;;4.80;99.90;;;;;;4999692;28;20205;-75
2020/12/03 04:17:29;;;;;;;25.48;16.02;;;4.70;99.90;;;;;;5034347;28;20177;-76
2020/12/03 04:19:58;;;;;;;23.95;15.25;;;4.70;99.90;;;;;;5030140;28;20169;-75
2020/12/03 04:22:28;;;;;;;20.77;14.70;;;5.00;99.90;;;;;;5036611;28;20179;-76
2020/12/03 04:24:54;;;;;;;24.52;15.35;;;4.80;99.90;;;;;;5035404;28;20362;-76
2020/12/03 04:27:32;;;;;;;26.83;16.27;;;4.70;99.90;;;;;;5035771;28;20279;-76
2020/12/03 04:29:58;;;;;;;24.38;15.32;;;4.80;99.90;;;;;;5019575;28;20188;-76
2020/12/03 04:32:33;;;;;;;24.75;15.20;;;5.00;99.90;;;;;;5037902;28;20199;-76
2020/12/03 04:35:00;;;;;;;27.55;16.30;;;4.80;99.90;;;;;;5003226;28;20223;-76
2020/12/03 04:37:26;;;;;;;21.23;14.88;;;4.80;99.90;;;;;;5034786;28;20190;-77
2020/12/03 04:39:53;;;;;;;24.67;15.05;;;4.80;99.90;;;;;;5032647;28;20687;-76
2020/12/03 04:42:38;;;;;;;24.70;15.32;;;4.70;99.90;;;;;;5010678;28;20401;-77
2020/12/03 04:45:29;;;;;;;25.67;15.18;;;4.70;99.90;;;;;;5016501;28;20201;-74
2020/12/03 04:48:25;;;;;;;22.67;14.23;;;4.70;99.90;;;;;;5004557;28;20272;-76
2020/12/03 04:51:09;;;;;;;22.17;13.52;;;4.80;99.90;;;;;;5019612;28;20184;-75
2020/12/03 04:53:43;;;;;;;24.20;14.25;;;5.00;99.90;;;;;;5035440;28;20250;-76
2020/12/03 04:56:19;;;;;;;22.30;14.68;;;4.80;99.90;;;;;;5018630;28;20306;-76
2020/12/03 04:59:15;;;;;;;22.63;14.05;;;4.80;99.90;;;;;;5025569;28;20188;-76
2020/12/03 05:02:02;;;;;;;21.48;13.48;;;4.80;99.90;;;;;;5015905;28;20270;-75
2020/12/03 05:05:10;;;;;;;20.48;13.40;;;4.60;99.90;;;;;;5030702;28;20291;-75
2020/12/03 05:07:36;;;;;;;22.35;14.05;;;4.80;99.90;;;;;;5003083;28;20189;-76
2020/12/03 05:10:27;;;;;;;22.55;14.68;;;4.70;99.90;;;;;;5032136;28;20185;-76
2020/12/03 05:13:12;;;;;;;22.05;13.90;;;4.80;99.90;;;;;;5051068;28;20188;-75
2020/12/03 05:15:38;;;;;;;19.85;14.00;;;4.80;99.90;;;;;;5018984;28;20294;-75
2020/12/03 05:18:49;;;;;;;22.40;14.15;;;4.90;99.90;;;;;;5053219;28;20184;-76
2020/12/03 05:21:20;;;;;;;19.90;13.20;;;4.90;99.90;;;;;;5017625;28;20196;-76
2020/12/03 05:23:50;;;;;;;21.90;13.07;;;4.90;99.90;;;;;;5052824;28;20171;-75
2020/12/03 05:26:32;;;;;;;19.90;13.30;;;4.90;99.90;;;;;;5019154;28;20212;-76
2020/12/03 05:29:09;;;;;;;24.83;13.80;;;4.90;99.90;;;;;;5052057;28;20188;-77
2020/12/03 05:31:41;;;;;;;19.20;12.43;;;5.00;99.90;;;;;;5017810;28;20211;-76
2020/12/03 05:34:19;;;;;;;20.48;12.77;;;4.90;99.90;;;;;;5004700;28;20204;-76
2020/12/03 05:36:54;;;;;;;19.55;12.77;;;4.90;99.90;;;;;;5032652;28;20284;-76
2020/12/03 05:39:34;;;;;;;20.67;13.60;;;4.80;99.90;;;;;;5046844;28;20233;-76
2020/12/03 05:42:07;;;;;;;21.55;13.20;;;4.90;99.90;;;;;;5005955;28;20304;-75
2020/12/03 05:44:42;;;;;;;20.85;13.05;;;4.90;99.90;;;;;;5011651;28;20257;-75
2020/12/03 05:47:23;;;;;;;20.85;13.93;;;4.70;99.90;;;;;;5019985;28;20204;-75
2020/12/03 05:50:03;;;;;;;19.30;12.70;;;4.90;99.90;;;;;;5015659;28;20204;-76
2020/12/03 05:52:38;;;;;;;21.42;13.68;;;4.80;99.90;;;;;;5032610;28;20193;-77
2020/12/03 05:55:14;;;;;;;21.02;13.50;;;4.80;99.90;;;;;;5027037;28;20238;-75
2020/12/03 05:57:44;;;;;;;18.42;12.27;;;4.80;99.90;;;;;;5028210;28;20182;-76
2020/12/03 06:00:12;;;;;;;23.80;12.15;;;4.80;99.90;;;;;;5017356;28;20184;-76
2020/12/03 06:02:57;;;;;;;20.33;12.82;;;4.70;99.90;;;;;;5047310;28;20716;-76
2020/12/03 06:05:39;;;;;;;17.90;10.98;;;4.70;99.90;;;;;;5014460;28;20204;-76
2020/12/03 06:08:36;;;;;;;21.77;13.57;;;4.70;99.90;;;;;;5031820;28;20196;-75
2020/12/03 06:11:26;;;;;;;18.77;12.10;;;4.70;99.90;;;;;;4995551;28;20659;-74
2020/12/03 06:14:34;;;;;;;19.88;13.85;;;4.60;99.90;;;;;;5020568;28;20193;-76
2020/12/03 06:17:23;;;;;;;17.73;11.40;;;4.70;99.90;;;;;;4998053;28;20544;-76
2020/12/03 06:20:01;;;;;;;20.00;11.80;;;4.60;99.90;;;;;;5031431;28;20186;-76
2020/12/03 06:23:03;;;;;;;18.65;11.55;;;4.60;99.90;;;;;;5014055;28;20569;-75
2020/12/03 06:25:45;;;;;;;16.00;11.13;;;4.70;99.90;;;;;;4998424;28;20205;-76
2020/12/03 06:28:16;;;;;;;19.40;12.20;;;4.60;99.90;;;;;;4998908;28;20186;-76
2020/12/03 06:30:51;;;;;;;16.08;11.40;;;4.60;99.90;;;;;;5020481;28;20185;-76
2020/12/03 06:33:46;;;;;;;16.90;11.40;;;4.70;99.90;;;;;;5021032;28;20677;-75
2020/12/03 06:36:25;;;;;;;17.95;11.80;;;4.80;99.90;;;;;;5031232;28;20725;-76
2020/12/03 06:38:59;;;;;;;18.55;11.20;;;4.70;99.90;;;;;;5014738;28;20189;-76
2020/12/03 06:41:34;;;;;;;19.40;12.05;;;4.70;99.90;;;;;;5001042;28;20182;-75
2020/12/03 06:44:22;;;;;;;18.25;12.32;;;4.70;99.90;;;;;;5021586;28;20196;-76
2020/12/03 06:47:32;;;;;;;19.30;11.55;;;4.70;99.90;;;;;;5037935;28;20223;-76
2020/12/03 06:50:10;;;;;;;19.52;11.85;;;4.90;99.90;;;;;;5021567;28;20215;-76
2020/12/03 06:53:02;;;;;;;20.00;11.23;;;4.90;99.90;;;;;;5037907;28;20176;-76
2020/12/03 06:55:42;;;;;;;19.55;11.02;;;4.70;99.90;;;;;;5037456;28;20220;-76
2020/12/03 06:58:42;;;;;;;16.63;11.23;;;4.70;99.90;;;;;;5020602;28;20583;-76
2020/12/03 07:01:26;;;;;;;17.60;10.43;;;4.70;99.90;;;;;;5037789;28;20185;-75
2020/12/03 07:04:30;;;;;;;19.25;11.93;;;4.70;99.90;;;;;;5021382;28;20181;-76
2020/12/03 07:07:40;;;;;;;18.40;11.70;;;4.70;99.90;;;;;;5055126;28;20190;-76
2020/12/03 07:10:55;;;;;;;17.75;11.32;;;4.60;99.90;;;;;;5037351;28;20176;-75
2020/12/03 07:13:57;;;;;;;18.02;10.20;;;4.80;99.90;;;;;;4993504;28;20194;-76
2020/12/03 07:17:11;;;;;;;17.38;11.55;;;4.80;99.90;;;;;;4977328;28;20214;-75
2020/12/03 07:20:07;;;;;;;17.83;11.90;;;4.80;99.90;;;;;;4975461;28;20183;-75
2020/12/03 07:22:39;;;;;;;18.00;11.38;;;4.80;99.90;;;;;;4973671;28;20195;-76
2020/12/03 07:25:09;;;;;;;19.27;11.38;;;4.70;99.90;;;;;;4983849;28;20644;-75
2020/12/03 07:27:36;;;;;;;17.92;11.00;;;4.80;99.90;;;;;;4976499;28;20612;-75
2020/12/03 07:30:35;;;;;;;19.08;11.88;;;4.90;99.90;;;;;;4958161;28;20199;-75
2020/12/03 07:33:26;;;;;;;16.35;10.70;;;4.80;99.90;;;;;;4958843;28;20678;-76
2020/12/03 07:36:17;;;;;;;17.90;12.02;;;4.90;99.90;;;;;;4992403;28;20217;-76
2020/12/03 07:39:09;;;;;;;20.80;12.90;;;4.70;99.90;;;;;;4974876;28;20191;-76
2020/12/03 07:42:01;;;;;;;17.48;10.77;;;4.80;99.90;;;;;;4957936;28;20234;-75
2020/12/03 07:44:44;;;;;;;18.40;11.57;;;4.70;99.90;;;;;;4988429;28;20217;-76
2020/12/03 07:47:37;;;;;;;16.45;10.50;;;4.80;99.90;;;;;;4992436;28;20182;-76
2020/12/03 07:50:29;;;;;;;17.90;11.32;;;4.70;99.90;;;;;;5028984;28;20258;-76
2020/12/03 07:53:14;;;;;;;16.08;10.55;;;4.70;99.90;;;;;;5038731;28;20265;-76
2020/12/03 07:55:41;;;;;;;19.05;11.52;;;4.60;99.90;;;;;;5025005;28;20212;-76
2020/12/03 07:58:30;;;;;;;19.50;11.48;;;4.60;99.90;;;;;;5050629;28;20266;-76
2020/12/03 08:01:00;;;;;;;15.25;10.38;;;4.70;99.90;;;;;;5019828;28;20205;-77
2020/12/03 08:03:46;;;;;;;18.65;12.30;;;4.70;99.90;;;;;;5019129;28;20169;-76
2020/12/03 08:06:40;;;;;;;16.95;11.20;;;4.60;99.90;;;;;;5022556;28;20193;-77
2020/12/03 08:09:06;;;;;;;17.50;10.90;;;4.70;99.90;;;;;;5004256;28;20213;-77
2020/12/03 08:11:41;;;;;;;18.48;11.55;;;4.60;99.90;;;;;;5000140;28;20196;-76
2020/12/03 08:14:31;;;;;;;19.45;11.90;;;4.60;99.90;;;;;;5024045;28;20205;-77
2020/12/03 08:17:26;;;;;;;14.68;10.15;;;4.60;99.90;;;;;;5000011;28;20666;-77
2020/12/03 08:20:05;;;;;;;18.15;10.77;;;4.70;99.90;;;;;;5020054;28;20642;-77
2020/12/03 08:22:34;;;;;;;19.50;11.82;;;4.60;99.90;;;;;;5012078;28;20188;-76
2020/12/03 08:25:03;;;;;;;19.30;12.10;;;4.60;99.90;;;;;;5041091;28;20663;-77
2020/12/03 08:27:32;;;;;;;17.13;11.70;;;4.60;99.90;;;;;;5034095;28;20184;-76
2020/12/03 08:30:38;;;;;;;16.33;11.20;;;4.60;99.90;;;;;;5001160;28;20185;-77
2020/12/03 08:33:33;;;;;;;16.02;10.70;;;4.70;99.90;;;;;;5013638;28;20196;-77
2020/12/03 08:36:00;;;;;;;18.80;11.63;;;4.60;99.90;;;;;;4939596;29;20704;-77
2020/12/03 08:38:37;;;;;;;17.15;12.10;;;4.70;99.90;;;;;;4920353;29;20243;-75
2020/12/03 08:41:09;;;;;;;18.75;10.27;;;4.90;99.90;;;;;;4925319;29;20645;-76
2020/12/03 08:43:42;;;;;;;16.50;10.52;;;4.60;99.90;;;;;;4978089;22;20317;-85
2020/12/03 08:46:16;;;;;;;17.50;10.70;;;4.60;99.90;;;;;;4964346;28;20194;-84
2020/12/03 08:48:44;;;;;;;16.45;11.07;;;4.60;99.90;;;;;;4956025;29;20192;-84
2020/12/03 08:51:12;;;;;;;14.35;10.02;;;4.70;99.90;;;;;;5006990;28;20209;-85
2020/12/03 08:53:47;;;;;;;19.27;12.15;;;4.70;99.90;;;;;;4992416;28;20485;-84
2020/12/03 08:56:15;;;;;;;16.73;11.23;;;4.70;99.90;;;;;;4981049;28;20293;-82
2020/12/03 08:59:01;;;;;;;16.70;10.50;;;4.70;99.90;;;;;;4992943;28;20637;-83
2020/12/03 09:01:35;;;;;;;17.80;10.93;;;4.70;99.90;;;;;;4984887;28;20477;-84
2020/12/03 09:04:05;;;;;;;16.50;11.30;;;4.60;99.90;;;;;;4982272;28;20194;-84
2020/12/03 09:06:36;;;;;;;17.58;10.90;;;4.70;99.90;;;;;;4989998;28;20194;-86
2020/12/03 09:09:04;;;;;;;16.73;11.20;;;4.70;99.90;;;;;;4995115;28;20687;-85
2020/12/03 09:11:37;;;;;;;18.75;10.95;;;4.60;99.90;;;;;;4977430;28;20190;-85
2020/12/03 09:14:07;;;;;;;17.00;10.90;;;4.70;99.90;;;;;;4981563;28;20226;-85
2020/12/03 09:16:35;;;;;;;15.45;10.25;;;4.80;99.90;;;;;;4975435;28;20192;-85
2020/12/03 09:19:01;;;;;;;13.82;9.50;;;5.00;99.90;;;;;;4943402;28;20187;-82
2020/12/03 09:21:30;;;;;;;17.30;10.45;;;4.90;99.90;;;;;;4975384;28;20218;-84
2020/12/03 09:23:58;;;;;;;17.35;10.85;;;4.90;99.90;;;;;;4981758;28;20266;-84
2020/12/03 09:26:31;;;;;;;16.42;10.18;;;4.80;99.90;;;;;;4959491;28;20592;-84
2020/12/03 09:28:59;;;;;;;16.92;10.52;;;4.90;99.90;;;;;;4974433;28;20290;-84
2020/12/03 09:31:26;;;;;;;16.63;9.95;;;4.70;99.90;;;;;;4975173;28;20198;-86
2020/12/03 09:33:54;;;;;;;13.88;9.75;;;4.90;99.90;;;;;;4994684;28;20178;-85
2020/12/03 09:36:22;;;;;;;17.10;10.30;;;5.00;99.90;;;;;;4975832;28;20237;-80
2020/12/03 09:38:57;;;;;;;15.65;10.05;;;4.90;99.90;;;;;;4985796;28;20237;-81
2020/12/03 09:41:23;;;;;;;13.77;8.70;;;4.90;99.90;;;;;;4981989;28;20611;-83
2020/12/03 09:43:57;;;;;;;14.80;10.02;;;4.90;99.90;;;;;;4952484;28;20253;-83
2020/12/03 09:46:27;;;;;;;14.52;10.45;;;4.90;99.90;;;;;;4985952;28;20647;-79
2020/12/03 09:48:58;;;;;;;20.83;10.20;;;4.90;99.90;;;;;;4975357;28;20182;-79
2020/12/03 09:51:26;;;;;;;14.48;9.65;;;5.00;99.90;;;;;;4964691;28;20611;-80
2020/12/03 09:53:53;;;;;;;13.50;9.20;;;4.90;99.90;;;;;;4981640;28;20187;-80
2020/12/03 09:56:21;;;;;;;14.65;10.00;;;5.00;99.90;;;;;;4976044;28;20221;-84
2020/12/03 09:58:57;;;;;;;13.30;8.85;;;5.00;99.90;;;;;;4993257;28;20240;-85
2020/12/03 10:01:44;;;;;;;13.27;9.52;;;5.10;99.90;;;;;;4986488;28;20171;-82
2020/12/03 10:04:17;;;;;;;13.68;9.63;;;5.10;99.90;;;;;;4974893;28;20202;-85
2020/12/03 10:06:58;;;;;;;15.23;10.38;;;5.20;99.90;;;;;;4974361;28;20194;-85
2020/12/03 10:09:50;;;;;;;15.27;9.95;;;5.10;99.90;;;;;;4974306;28;20182;-84
2020/12/03 10:12:18;;;;;;;16.35;9.60;;;5.20;99.90;;;;;;4977401;28;20205;-84
2020/12/03 10:15:31;;;;;;;14.98;8.98;;;5.20;99.90;;;;;;4992142;28;20699;-86
2020/12/03 10:18:09;;;;;;;16.85;9.70;;;5.30;99.90;;;;;;4941787;28;20634;-83
2020/12/03 10:20:36;;;;;;;16.65;10.25;;;5.50;99.90;;;;;;4977061;28;20245;-85
2020/12/03 10:23:17;;;;;;;14.10;9.25;;;5.40;99.90;;;;;;4974895;28;20179;-81
2020/12/03 10:25:58;;;;;;;16.48;9.82;;;5.40;99.90;;;;;;4959944;28;20202;-83
2020/12/03 10:28:40;;;;;;;16.38;11.07;;;5.30;99.90;;;;;;4955137;28;20203;-83
2020/12/03 10:31:09;;;;;;;15.02;10.32;;;5.30;99.90;;;;;;4974032;28;20526;-83
2020/12/03 10:33:38;;;;;;;16.58;9.18;;;5.20;99.90;;;;;;4992576;28;20221;-82
2020/12/03 10:36:16;;;;;;;15.30;10.32;;;5.20;99.90;;;;;;4973302;28;20211;-82
2020/12/03 10:38:49;;;;;;;16.42;10.50;;;5.20;99.90;;;;;;4980356;28;20190;-83
2020/12/03 10:41:16;;;;;;;18.42;11.00;;;5.20;99.90;;;;;;4994043;28;20179;-82
2020/12/03 10:43:50;;;;;;;14.00;10.60;;;5.10;99.90;;;;;;4974040;28;20233;-82
2020/12/03 10:46:24;;;;;;;16.27;10.90;;;5.10;99.90;;;;;;4957747;28;20179;-85
2020/12/03 10:48:57;;;;;;;14.02;9.35;;;5.20;99.90;;;;;;4992891;28;20644;-81
2020/12/03 10:51:25;;;;;;;14.82;11.23;;;5.00;99.90;;;;;;4992727;28;20269;-86
2020/12/03 10:53:53;;;;;;;18.73;11.27;;;5.10;99.90;;;;;;4954918;29;20633;-85
2020/12/03 10:56:28;;;;;;;15.30;9.80;;;5.20;99.90;;;;;;4954198;29;20310;-84
2020/12/03 10:59:20;;;;;;;15.52;9.80;;;5.20;99.90;;;;;;4992157;28;20182;-83
2020/12/03 11:01:54;;;;;;;17.45;10.90;;;5.30;99.90;;;;;;4971036;28;20362;-82
2020/12/03 11:04:21;;;;;;;16.35;10.50;;;5.20;99.90;;;;;;4977206;28;20198;-85
2020/12/03 11:06:47;;;;;;;15.55;9.68;;;5.30;99.90;;;;;;4962327;28;20187;-87
2020/12/03 11:09:19;;;;;;;16.33;10.68;;;5.30;99.90;;;;;;4961196;28;20270;-87
2020/12/03 11:11:47;;;;;;;16.92;11.07;;;5.30;99.90;;;;;;4963699;28;20616;-81
2020/12/03 11:14:17;;;;;;;15.98;9.93;;;5.30;99.90;;;;;;4993909;28;20191;-84
2020/12/03 11:17:05;;;;;;;18.00;10.82;;;5.30;99.90;;;;;;4958533;28;20501;-85
2020/12/03 11:19:38;;;;;;;19.20;12.23;;;5.40;99.90;;;;;;4993663;28;20662;-85
2020/12/03 11:22:30;;;;;;;16.73;11.07;;;5.40;99.90;;;;;;4997130;28;20226;-84
2020/12/03 11:25:07;;;;;;;14.52;10.60;;;5.50;99.90;;;;;;4958317;29;20183;-85
2020/12/03 11:27:36;;;;;;;19.50;10.57;;;5.40;99.90;;;;;;4956378;28;20186;-85
2020/12/03 11:30:16;;;;;;;17.42;11.00;;;5.40;99.90;;;;;;4970209;28;20204;-85
2020/12/03 11:32:48;;;;;;;17.02;10.80;;;5.50;99.90;;;;;;4981945;28;20279;-86
2020/12/03 11:35:31;;;;;;;15.13;10.48;;;5.60;99.90;;;;;;4983413;28;20222;-85
2020/12/03 11:38:01;;;;;;;15.52;10.98;;;5.60;99.90;;;;;;4996795;28;20186;-85
2020/12/03 11:40:49;;;;;;;15.48;9.80;;;5.70;99.90;;;;;;4988502;28;20604;-86
2020/12/03 11:48:58;;;;;;;17.10;11.40;;;5.70;99.90;;;;;;4996665;28;20182;-82
2020/12/03 11:51:33;;;;;;;18.08;10.95;;;5.80;99.90;;;;;;4982080;28;20192;-82
2020/12/03 11:54:01;;;;;;;16.00;9.85;;;5.80;99.90;;;;;;4985617;28;20678;-83
2020/12/03 11:56:31;;;;;;;14.73;9.43;;;5.60;99.90;;;;;;4989912;28;20203;-83
2020/12/03 11:59:11;;;;;;;16.25;10.10;;;5.60;99.90;;;;;;4986752;28;20194;-88
2020/12/03 12:01:54;;;;;;;13.80;10.27;;;5.60;99.90;;;;;;4976282;28;20210;-88
2020/12/03 12:04:26;;;;;;;14.95;9.55;;;5.70;99.90;;;;;;4991388;28;20204;-86
2020/12/03 12:12:21;;;;;;;14.70;9.65;;;5.90;99.90;;;;;;4979402;28;20183;-85
2020/12/03 12:14:49;;;;;;;17.65;10.73;;;5.90;99.90;;;;;;4959717;28;20208;-86
2020/12/03 12:17:21;;;;;;;14.50;9.77;;;5.90;99.90;;;;;;4946382;28;20179;-85
2020/12/03 12:19:49;;;;;;;11.93;9.38;;;5.90;99.90;;;;;;4979390;28;20523;-85
2020/12/03 12:22:18;;;;;;;17.20;9.60;;;5.90;99.90;;;;;;4992476;28;20202;-85
2020/12/03 12:24:49;;;;;;;13.48;8.75;;;5.90;99.90;;;;;;4975601;28;20613;-84
2020/12/03 12:27:21;;;;;;;15.00;9.13;;;6.00;99.90;;;;;;4977300;28;20183;-88
2020/12/03 12:29:47;;;;;;;14.45;9.20;;;6.00;99.90;;;;;;4959860;28;20201;-85
2020/12/03 12:32:15;;;;;;;13.50;8.23;;;6.10;99.90;;;;;;4960317;28;20569;-85
2020/12/03 12:34:44;;;;;;;15.10;9.90;;;6.00;99.90;;;;;;4943578;28;20210;-83
2020/12/03 12:37:11;;;;;;;12.43;8.45;;;6.00;99.90;;;;;;4976988;28;20763;-83
2020/12/03 12:39:38;;;;;;;13.65;9.10;;;5.90;99.90;;;;;;4994622;28;20653;-83
2020/12/03 12:42:07;;;;;;;12.68;8.50;;;6.00;99.90;;;;;;4987125;28;20184;-83
2020/12/03 12:44:36;;;;;;;12.48;8.95;;;6.00;99.90;;;;;;4970765;28;20825;-83
2020/12/03 12:47:08;;;;;;;12.32;8.05;;;6.00;99.90;;;;;;4960072;28;20255;-83
2020/12/03 12:49:34;;;;;;;13.65;9.35;;;6.10;99.90;;;;;;4994555;28;20202;-83
2020/12/03 12:52:00;;;;;;;12.57;8.63;;;6.10;99.90;;;;;;4993038;28;20193;-83
2020/12/03 12:54:26;;;;;;;12.83;8.67;;;6.10;99.90;;;;;;4978150;28;20179;-83
2020/12/03 12:56:54;;;;;;;12.80;8.63;;;6.10;99.90;;;;;;4961843;28;20481;-84
2020/12/03 12:59:23;;;;;;;11.23;8.90;;;6.10;99.90;;;;;;4975210;28;20191;-83
2020/12/03 13:01:51;;;;;;;11.02;8.05;;;6.10;99.90;;;;;;4989092;28;20187;-84
2020/12/03 13:04:18;;;;;;;15.63;7.90;;;6.20;99.90;;;;;;4978270;28;20208;-83
2020/12/03 13:06:44;;;;;;;10.15;7.65;;;6.10;99.90;;;;;;4979790;28;20191;-83
2020/12/03 13:09:13;;;;;;;10.02;7.60;;;6.20;99.90;;;;;;4975644;28;20195;-84
2020/12/03 13:11:43;;;;;;;12.07;8.77;;;6.20;99.90;;;;;;4988589;28;20183;-83
2020/12/03 13:14:11;;;;;;;11.68;8.55;;;6.10;99.90;;;;;;4994979;28;20207;-86
2020/12/03 13:16:39;;;;;;;12.05;8.45;;;6.10;99.90;;;;;;4993878;28;20222;-85
2020/12/03 13:19:07;;;;;;;12.38;8.40;;;6.10;99.90;;;;;;4985296;28;20183;-83
2020/12/03 13:21:34;;;;;;;14.65;8.55;;;6.10;99.90;;;;;;4958657;28;20814;-83
2020/12/03 13:24:03;;;;;;;11.00;7.88;;;6.20;99.90;;;;;;4964945;28;20197;-84
2020/12/03 13:26:29;;;;;;;13.57;8.57;;;6.20;99.90;;;;;;4989690;28;20195;-83
2020/12/03 13:28:56;;;;;;;9.10;6.50;;;6.30;99.90;;;;;;4995094;28;20214;-82
2020/12/03 13:31:24;;;;;;;11.07;8.10;;;6.30;99.90;;;;;;4991342;28;20628;-83